Pretty Hana — DSQJ5 — position and weather

sailwx.info

Track history (hours):
 
Tides and Currents Weather Stations Pressure Air Temp Water Temp Dewpoint Dewpoint Depression Visibility Wind Speed Wind Dir Waves Ship Positions

Pretty Hana

Last reported at 2017-Dec-10 13:43 UTC. Time now 2017-Dec-17 08:26 UTC.
Position N 34°24' E 130°09'.

Length 64 m; draft 4.8 m.

Type: Ship (hazmat cat B). MMSI: 441600000.

Date/timePositionNaut miles runAvg speedWind from/ knotsBaromVisibWave heightAir tempDewpointWater temp
2017-Dec-10 13:43N 34°24' E 130°09'1 5.8
2017-Dec-10 13:30N 34°23' E 130°10'3 6.2
2017-Dec-10 13:01N 34°22' E 130°13'3 5.8
2017-Dec-10 12:29N 34°20' E 130°17'3 5.9
2017-Dec-10 12:00N 34°19' E 130°19'3 6.0
2017-Dec-10 11:30N 34°17' E 130°23'3 5.9
2017-Dec-10 11:00N 34°15' E 130°26'3 5.9
2017-Dec-10 10:30N 34°14' E 130°28'3 5.5
2017-Dec-10 10:00N 34°12' E 130°31'3 5.9
2017-Dec-10 09:30N 34°11' E 130°34'3 6.2
2017-Dec-10 09:00N 34°09' E 130°37'3 6.8
2017-Dec-10 08:31N 34°07' E 130°41'4 7.2
2017-Dec-10 08:00N 34°05' E 130°44'4 8.2
2017-Dec-10 07:31N 34°03' E 130°48'4 8.8
2017-Dec-10 07:01N 33°60' E 130°53'5 9.0
2017-Dec-10 06:30N 33°55' E 130°53'4 8.9
2017-Dec-10 06:00N 33°58' E 130°58'5 9.4
2017-Dec-10 05:30N 33°58' E 131°03'510.0
2017-Dec-10 05:00N 33°55' E 131°08'5 9.8
2017-Dec-10 04:30N 33°52' E 131°13'5 9.7
2017-Dec-10 04:00N 33°52' E 131°19'5 9.7
2017-Dec-10 03:30N 33°51' E 131°25'5 9.8
2017-Dec-10 03:00N 33°50' E 131°31'510.2
2017-Dec-10 02:30N 33°49' E 131°37'5 9.9
2017-Dec-10 02:00N 33°48' E 131°43'5 9.7
2017-Dec-10 01:30N 33°47' E 131°49'6 9.5
2017-Dec-10 00:52N 33°46' E 131°56'19 9.2
2017-Dec-09 22:47N 33°50' E 132°18'12 9.7
2017-Dec-09 21:32N 33°53' E 132°32'0 8.8
2017-Dec-09 21:30N 33°53' E 132°33'610.1
2017-Dec-09 20:57N 33°55' E 132°39'510.1
2017-Dec-09 20:29N 33°58' E 132°43'77 8.3
2017-Dec-09 11:10N 34°32' E 134°08'21 8.5
2017-Dec-09 08:44N 34°42' E 134°29'2 8.6
2017-Dec-09 08:30N 34°43' E 134°32'5 8.7
2017-Dec-09 07:59N 34°44' E 134°37'2 0.3
2017-Dec-09 01:08N 34°46' E 134°36'0 0.4
2017-Dec-09 00:58N 34°46' E 134°36'4 8.2
2017-Dec-09 00:29N 34°43' E 134°37'5 9.8
2017-Dec-09 00:00N 34°38' E 134°38'5 9.8
2017-Dec-08 23:30N 34°33' E 134°38'5 9.8
2017-Dec-08 23:00N 34°28' E 134°38'5 9.6
2017-Dec-08 22:30N 34°23' E 134°38'5 9.2
2017-Dec-08 22:00N 34°19' E 134°38'5 8.8
2017-Dec-08 21:27N 34°14' E 134°39'4 8.5
2017-Dec-08 21:00N 34°10' E 134°41'5 8.8
2017-Dec-08 20:29N 34°06' E 134°44'4 8.9
2017-Dec-08 20:00N 34°02' E 134°46'17 1.9
2017-Dec-08 11:09N 33°49' E 134°58'310.4
2017-Dec-08 10:51N 33°52' E 134°58'410.7
2017-Dec-08 10:29N 33°56' E 134°58'510.6
2017-Dec-08 10:00N 34°01' E 134°58'510.2
2017-Dec-08 09:30N 34°06' E 134°58'510.4
2017-Dec-08 09:00N 34°11' E 134°58'611.4
2017-Dec-08 08:30N 34°17' E 134°58'4 8.5
2017-Dec-08 08:00N 34°21' E 135°00'4 7.4
2017-Dec-08 07:30N 34°24' E 135°03'4 7.9
2017-Dec-08 07:01N 34°26' E 135°07'4 8.1
2017-Dec-08 06:31N 34°29' E 135°10'4 8.1
2017-Dec-08 06:00N 34°32' E 135°13'4 8.4
2017-Dec-08 05:30N 34°36' E 135°15'5 9.1
2017-Dec-08 05:00N 34°41' E 135°15'2 2.9
2017-Dec-08 04:28N 34°42' E 135°15'0 0.0
2017-Dec-08 03:58N 34°42' E 135°15'0 0.0
2017-Dec-08 03:28N 34°42' E 135°15'0 0.0
2017-Dec-08 02:58N 34°42' E 135°15'0 0.0
2017-Dec-08 02:25N 34°42' E 135°15'0 0.0
2017-Dec-08 01:58N 34°42' E 135°15'0 0.0
2017-Dec-08 01:25N 34°42' E 135°15'0 0.0
2017-Dec-08 00:58N 34°42' E 135°15'0 0.0
2017-Dec-08 00:28N 34°42' E 135°15'0 0.0
2017-Dec-07 23:58N 34°42' E 135°15'0 0.0
2017-Dec-07 23:28N 34°42' E 135°15'0 0.0
2017-Dec-07 22:58N 34°42' E 135°15'1 1.9
2017-Dec-07 22:31N 34°41' E 135°15'3 6.7
2017-Dec-07 22:00N 34°38' E 135°17'1 2.1
2017-Dec-07 21:28N 34°39' E 135°18'0 0.0
2017-Dec-07 20:58N 34°39' E 135°18'0 0.1
2017-Dec-07 20:28N 34°39' E 135°18'0 0.0
2017-Dec-07 19:58N 34°39' E 135°18'0 0.1
2017-Dec-07 19:28N 34°39' E 135°18'0 0.0
2017-Dec-07 18:58N 34°39' E 135°18'0 0.1
2017-Dec-07 18:28N 34°39' E 135°18'1 1.1
2017-Dec-07 18:00N 34°38' E 135°18'4 8.8
2017-Dec-07 17:30N 34°36' E 135°13'5 9.3
2017-Dec-07 17:00N 34°35' E 135°08'5 9.9
2017-Dec-07 16:31N 34°36' E 135°02'5 9.6
2017-Dec-07 16:00N 34°36' E 134°56'4 9.0
2017-Dec-07 15:30N 34°34' E 134°51'4 8.5
2017-Dec-07 15:00N 34°33' E 134°47'4 8.6
2017-Dec-07 14:30N 34°31' E 134°42'4 9.0
2017-Dec-07 14:00N 34°29' E 134°37'5 9.2
2017-Dec-07 13:30N 34°27' E 134°32'91 8.7
2017-Dec-07 03:05N 34°01' E 132°46'111.3
2017-Dec-07 02:59N 34°00' E 132°45'611.8
2017-Dec-07 02:30N 33°56' E 132°41'1610.8
2017-Dec-07 01:02N 33°50' E 132°23'010.3
2017-Dec-07 01:00N 33°50' E 132°23'510.4
2017-Dec-07 00:30N 33°50' E 132°16'910.2
2017-Dec-06 23:39N 33°47' E 132°06'1 9.8
2017-Dec-06 23:30N 33°46' E 132°05'5 9.5
2017-Dec-06 23:00N 33°45' E 131°59'5 9.0
2017-Dec-06 22:30N 33°45' E 131°54'4 8.9
2017-Dec-06 22:00N 33°45' E 131°49'4 8.8
2017-Dec-06 21:30N 33°46' E 131°43'5 9.0
2017-Dec-06 21:00N 33°46' E 131°38'  
2017-Dec-01 09:59N 31°04' E 122°05'4 8.8
2017-Dec-01 09:30N 31°05' E 122°00'510.6
2017-Dec-01 09:00N 31°08' E 121°55'2911.9
2017-Dec-01 06:35N 31°26' E 121°29'111.1
2017-Dec-01 06:29N 31°27' E 121°28'510.7
2017-Dec-01 05:59N 31°31' E 121°24'510.2
2017-Dec-01 05:30N 31°33' E 121°19'5 9.7
2017-Dec-01 04:59N 31°37' E 121°15'5 8.8
2017-Dec-01 04:27N 31°41' E 121°11'  
Track history (hours):
 
Tides and Currents Weather Stations Pressure Air Temp Water Temp Dewpoint Dewpoint Depression Visibility Wind Speed Wind Dir Waves Ship Positions

Pretty Hana

Last reported at 2017-Dec-10 13:43 UTC. Time now 2017-Dec-17 08:26 UTC.
Position N 34°24' E 130°09'.

Length 64 m; draft 4.8 m.

Type: Ship (hazmat cat B). MMSI: 441600000.

Date/timePositionNaut miles runAvg speedWind from/ knotsBaromVisibWave heightAir tempDewpointWater temp
2017-Dec-10 13:43N 34°24' E 130°09'1 5.8
2017-Dec-10 13:30N 34°23' E 130°10'3 6.2
2017-Dec-10 13:01N 34°22' E 130°13'3 5.8
2017-Dec-10 12:29N 34°20' E 130°17'3 5.9
2017-Dec-10 12:00N 34°19' E 130°19'3 6.0
2017-Dec-10 11:30N 34°17' E 130°23'3 5.9
2017-Dec-10 11:00N 34°15' E 130°26'3 5.9
2017-Dec-10 10:30N 34°14' E 130°28'3 5.5
2017-Dec-10 10:00N 34°12' E 130°31'3 5.9
2017-Dec-10 09:30N 34°11' E 130°34'3 6.2
2017-Dec-10 09:00N 34°09' E 130°37'3 6.8
2017-Dec-10 08:31N 34°07' E 130°41'4 7.2
2017-Dec-10 08:00N 34°05' E 130°44'4 8.2
2017-Dec-10 07:31N 34°03' E 130°48'4 8.8
2017-Dec-10 07:01N 33°60' E 130°53'5 9.0
2017-Dec-10 06:30N 33°55' E 130°53'4 8.9
2017-Dec-10 06:00N 33°58' E 130°58'5 9.4
2017-Dec-10 05:30N 33°58' E 131°03'510.0
2017-Dec-10 05:00N 33°55' E 131°08'5 9.8
2017-Dec-10 04:30N 33°52' E 131°13'5 9.7
2017-Dec-10 04:00N 33°52' E 131°19'5 9.7
2017-Dec-10 03:30N 33°51' E 131°25'5 9.8
2017-Dec-10 03:00N 33°50' E 131°31'510.2
2017-Dec-10 02:30N 33°49' E 131°37'5 9.9
2017-Dec-10 02:00N 33°48' E 131°43'5 9.7
2017-Dec-10 01:30N 33°47' E 131°49'6 9.5
2017-Dec-10 00:52N 33°46' E 131°56'19 9.2
2017-Dec-09 22:47N 33°50' E 132°18'12 9.7
2017-Dec-09 21:32N 33°53' E 132°32'0 8.8
2017-Dec-09 21:30N 33°53' E 132°33'610.1
2017-Dec-09 20:57N 33°55' E 132°39'510.1
2017-Dec-09 20:29N 33°58' E 132°43'77 8.3
2017-Dec-09 11:10N 34°32' E 134°08'21 8.5
2017-Dec-09 08:44N 34°42' E 134°29'2 8.6
2017-Dec-09 08:30N 34°43' E 134°32'5 8.7
2017-Dec-09 07:59N 34°44' E 134°37'2 0.3
2017-Dec-09 01:08N 34°46' E 134°36'0 0.4
2017-Dec-09 00:58N 34°46' E 134°36'4 8.2
2017-Dec-09 00:29N 34°43' E 134°37'5 9.8
2017-Dec-09 00:00N 34°38' E 134°38'5 9.8
2017-Dec-08 23:30N 34°33' E 134°38'5 9.8
2017-Dec-08 23:00N 34°28' E 134°38'5 9.6
2017-Dec-08 22:30N 34°23' E 134°38'5 9.2
2017-Dec-08 22:00N 34°19' E 134°38'5 8.8
2017-Dec-08 21:27N 34°14' E 134°39'4 8.5
2017-Dec-08 21:00N 34°10' E 134°41'5 8.8
2017-Dec-08 20:29N 34°06' E 134°44'4 8.9
2017-Dec-08 20:00N 34°02' E 134°46'17 1.9
2017-Dec-08 11:09N 33°49' E 134°58'310.4
2017-Dec-08 10:51N 33°52' E 134°58'410.7
2017-Dec-08 10:29N 33°56' E 134°58'510.6
2017-Dec-08 10:00N 34°01' E 134°58'510.2
2017-Dec-08 09:30N 34°06' E 134°58'510.4
2017-Dec-08 09:00N 34°11' E 134°58'611.4
2017-Dec-08 08:30N 34°17' E 134°58'4 8.5
2017-Dec-08 08:00N 34°21' E 135°00'4 7.4
2017-Dec-08 07:30N 34°24' E 135°03'4 7.9
2017-Dec-08 07:01N 34°26' E 135°07'4 8.1
2017-Dec-08 06:31N 34°29' E 135°10'4 8.1
2017-Dec-08 06:00N 34°32' E 135°13'4 8.4
2017-Dec-08 05:30N 34°36' E 135°15'5 9.1
2017-Dec-08 05:00N 34°41' E 135°15'2 2.9
2017-Dec-08 04:28N 34°42' E 135°15'0 0.0
2017-Dec-08 03:58N 34°42' E 135°15'0 0.0
2017-Dec-08 03:28N 34°42' E 135°15'0 0.0
2017-Dec-08 02:58N 34°42' E 135°15'0 0.0
2017-Dec-08 02:25N 34°42' E 135°15'0 0.0
2017-Dec-08 01:58N 34°42' E 135°15'0 0.0
2017-Dec-08 01:25N 34°42' E 135°15'0 0.0
2017-Dec-08 00:58N 34°42' E 135°15'0 0.0
2017-Dec-08 00:28N 34°42' E 135°15'0 0.0
2017-Dec-07 23:58N 34°42' E 135°15'0 0.0
2017-Dec-07 23:28N 34°42' E 135°15'0 0.0
2017-Dec-07 22:58N 34°42' E 135°15'1 1.9
2017-Dec-07 22:31N 34°41' E 135°15'3 6.7
2017-Dec-07 22:00N 34°38' E 135°17'1 2.1
2017-Dec-07 21:28N 34°39' E 135°18'0 0.0
2017-Dec-07 20:58N 34°39' E 135°18'0 0.1
2017-Dec-07 20:28N 34°39' E 135°18'0 0.0
2017-Dec-07 19:58N 34°39' E 135°18'0 0.1
2017-Dec-07 19:28N 34°39' E 135°18'0 0.0
2017-Dec-07 18:58N 34°39' E 135°18'0 0.1
2017-Dec-07 18:28N 34°39' E 135°18'1 1.1
2017-Dec-07 18:00N 34°38' E 135°18'4 8.8
2017-Dec-07 17:30N 34°36' E 135°13'5 9.3
2017-Dec-07 17:00N 34°35' E 135°08'5 9.9
2017-Dec-07 16:31N 34°36' E 135°02'5 9.6
2017-Dec-07 16:00N 34°36' E 134°56'4 9.0
2017-Dec-07 15:30N 34°34' E 134°51'4 8.5
2017-Dec-07 15:00N 34°33' E 134°47'4 8.6
2017-Dec-07 14:30N 34°31' E 134°42'4 9.0
2017-Dec-07 14:00N 34°29' E 134°37'5 9.2
2017-Dec-07 13:30N 34°27' E 134°32'91 8.7
2017-Dec-07 03:05N 34°01' E 132°46'111.3
2017-Dec-07 02:59N 34°00' E 132°45'611.8
2017-Dec-07 02:30N 33°56' E 132°41'1610.8
2017-Dec-07 01:02N 33°50' E 132°23'010.3
2017-Dec-07 01:00N 33°50' E 132°23'510.4
2017-Dec-07 00:30N 33°50' E 132°16'910.2
2017-Dec-06 23:39N 33°47' E 132°06'1 9.8
2017-Dec-06 23:30N 33°46' E 132°05'5 9.5
2017-Dec-06 23:00N 33°45' E 131°59'5 9.0
2017-Dec-06 22:30N 33°45' E 131°54'4 8.9
2017-Dec-06 22:00N 33°45' E 131°49'4 8.8
2017-Dec-06 21:30N 33°46' E 131°43'5 9.0
2017-Dec-06 21:00N 33°46' E 131°38'  
2017-Dec-01 09:59N 31°04' E 122°05'4 8.8
2017-Dec-01 09:30N 31°05' E 122°00'510.6
2017-Dec-01 09:00N 31°08' E 121°55'2911.9
2017-Dec-01 06:35N 31°26' E 121°29'111.1
2017-Dec-01 06:29N 31°27' E 121°28'510.7
2017-Dec-01 05:59N 31°31' E 121°24'510.2
2017-Dec-01 05:30N 31°33' E 121°19'5 9.7
2017-Dec-01 04:59N 31°37' E 121°15'5 8.8
2017-Dec-01 04:27N 31°41' E 121°11'  

Dump ship's entire track history